createdAt,value
2018-06-03T00:00:40.636Z,1012.63
2018-06-03T00:01:40.647Z,1012.67
2018-06-03T00:02:40.649Z,1012.62
2018-06-03T00:03:40.657Z,1012.62
2018-06-03T00:04:40.648Z,1012.61
2018-06-03T00:05:42.884Z,1012.66
2018-06-03T00:06:40.674Z,1012.66
2018-06-03T00:07:40.928Z,1012.62
2018-06-03T00:08:40.885Z,1012.66
2018-06-03T00:09:40.443Z,1012.68
2018-06-03T00:10:40.915Z,1012.66
2018-06-03T00:11:40.933Z,1012.65
2018-06-03T00:12:40.675Z,1012.63
2018-06-03T00:13:40.907Z,1012.61
2018-06-03T00:14:40.905Z,1012.61
2018-06-03T00:15:40.991Z,1012.64
2018-06-03T00:16:40.712Z,1012.59
2018-06-03T00:17:40.911Z,1012.58
2018-06-03T00:18:40.716Z,1012.57
2018-06-03T00:19:40.894Z,1012.57
2018-06-03T00:20:40.751Z,1012.57
2018-06-03T00:21:40.891Z,1012.52
2018-06-03T00:22:40.717Z,1012.54
2018-06-03T00:23:40.662Z,1012.56
2018-06-03T00:24:40.291Z,1012.56
2018-06-03T00:25:41.244Z,1012.57
2018-06-03T00:26:40.908Z,1012.55
2018-06-03T00:27:40.718Z,1012.54
2018-06-03T00:28:40.913Z,1012.53
2018-06-03T00:29:40.908Z,1012.50
2018-06-03T00:30:40.913Z,1012.53
2018-06-03T00:31:40.621Z,1012.52
2018-06-03T00:32:40.681Z,1012.55
2018-06-03T00:33:40.909Z,1012.56
2018-06-03T00:34:41.413Z,1012.54
2018-06-03T00:35:40.888Z,1012.54
2018-06-03T00:36:40.657Z,1012.53
2018-06-03T00:37:40.908Z,1012.54
2018-06-03T00:38:40.904Z,1012.52
2018-06-03T00:39:40.670Z,1012.53
2018-06-03T00:40:40.695Z,1012.53
2018-06-03T00:41:40.889Z,1012.53
2018-06-03T00:42:40.667Z,1012.55
2018-06-03T00:43:40.886Z,1012.55
2018-06-03T00:44:40.702Z,1012.57
2018-06-03T00:45:40.677Z,1012.57
2018-06-03T00:46:40.687Z,1012.58
2018-06-03T00:47:40.714Z,1012.55
2018-06-03T00:48:40.724Z,1012.55
2018-06-03T00:49:40.694Z,1012.57
2018-06-03T00:50:40.719Z,1012.63
2018-06-03T00:51:40.690Z,1012.58
2018-06-03T00:52:40.720Z,1012.63
2018-06-03T00:53:40.672Z,1012.62
2018-06-03T00:54:40.723Z,1012.62
2018-06-03T00:55:40.652Z,1012.62
2018-06-03T00:56:40.659Z,1012.65
2018-06-03T00:57:40.913Z,1012.62
2018-06-03T00:58:40.649Z,1012.65
2018-06-03T00:59:40.914Z,1012.64
2018-06-03T01:00:40.664Z,1012.68
2018-06-03T01:01:40.662Z,1012.68
2018-06-03T01:02:40.667Z,1012.69
2018-06-03T01:03:40.663Z,1012.65
2018-06-03T01:04:42.440Z,1012.64
2018-06-03T01:05:40.913Z,1012.65
2018-06-03T01:06:40.667Z,1012.65
2018-06-03T01:07:40.915Z,1012.67
2018-06-03T01:08:40.651Z,1012.65
2018-06-03T01:09:40.679Z,1012.65
2018-06-03T01:10:40.915Z,1012.63
2018-06-03T01:11:40.670Z,1012.62
2018-06-03T01:12:40.922Z,1012.60
2018-06-03T01:13:40.695Z,1012.61
2018-06-03T01:14:40.642Z,1012.62
2018-06-03T01:15:40.665Z,1012.61
2018-06-03T01:16:40.693Z,1012.58
2018-06-03T01:17:40.683Z,1012.59
2018-06-03T01:18:40.652Z,1012.59
2018-06-03T01:19:40.692Z,1012.58
2018-06-03T01:20:40.694Z,1012.58
2018-06-03T01:21:40.690Z,1012.60
2018-06-03T01:22:40.693Z,1012.56
2018-06-03T01:23:40.681Z,1012.51
2018-06-03T01:24:40.681Z,1012.57
2018-06-03T01:25:40.685Z,1012.56
2018-06-03T01:26:40.712Z,1012.57
2018-06-03T01:27:40.696Z,1012.57
2018-06-03T01:28:40.713Z,1012.54
2018-06-03T01:29:40.927Z,1012.54
2018-06-03T01:30:42.499Z,1012.54
2018-06-03T01:31:40.663Z,1012.56
2018-06-03T01:32:40.925Z,1012.55
2018-06-03T01:33:40.659Z,1012.59
2018-06-03T01:34:40.930Z,1012.53
2018-06-03T01:35:40.668Z,1012.55
2018-06-03T01:36:40.927Z,1012.55
2018-06-03T01:37:40.715Z,1012.52
2018-06-03T01:38:40.697Z,1012.51
2018-06-03T01:39:40.672Z,1012.52
2018-06-03T01:40:40.686Z,1012.53
2018-06-03T01:41:40.675Z,1012.54
2018-06-03T01:42:42.451Z,1012.49
2018-06-03T01:43:42.727Z,1012.50
2018-06-03T01:44:40.713Z,1012.49
2018-06-03T01:45:40.717Z,1012.49
2018-06-03T01:46:40.709Z,1012.47
2018-06-03T01:47:40.722Z,1012.45
2018-06-03T01:48:40.712Z,1012.49
2018-06-03T01:49:40.713Z,1012.44
2018-06-03T01:50:40.670Z,1012.47
2018-06-03T01:51:40.714Z,1012.42
2018-06-03T01:52:42.734Z,1012.43
2018-06-03T01:53:40.659Z,1012.42
2018-06-03T01:54:42.642Z,1012.42
2018-06-03T01:55:40.662Z,1012.40
2018-06-03T01:56:40.718Z,1012.45
2018-06-03T01:57:40.686Z,1012.42
2018-06-03T01:58:40.658Z,1012.44
2018-06-03T01:59:40.671Z,1012.44
2018-06-03T02:00:42.952Z,1012.40
2018-06-03T02:01:40.701Z,1012.40
2018-06-03T02:02:40.757Z,1012.37
2018-06-03T02:03:40.707Z,1012.38
2018-06-03T02:04:42.711Z,1012.36
2018-06-03T02:05:40.716Z,1012.40
2018-06-03T02:06:41.698Z,1012.37
2018-06-03T02:07:40.723Z,1012.41
2018-06-03T02:08:42.492Z,1012.39
2018-06-03T02:09:40.716Z,1012.37
2018-06-03T02:10:40.739Z,1012.36
2018-06-03T02:11:40.709Z,1012.37
2018-06-03T02:12:40.737Z,1012.32
2018-06-03T02:13:40.713Z,1012.37
2018-06-03T02:14:40.722Z,1012.34
2018-06-03T02:15:40.732Z,1012.31
2018-06-03T02:16:40.740Z,1012.33
2018-06-03T02:17:40.724Z,1012.32
2018-06-03T02:18:40.769Z,1012.31
2018-06-03T02:19:40.757Z,1012.33
2018-06-03T02:20:40.753Z,1012.34
2018-06-03T02:21:40.748Z,1012.30
2018-06-03T02:22:40.713Z,1012.35
2018-06-03T02:23:40.710Z,1012.30
2018-06-03T02:24:40.711Z,1012.32
2018-06-03T02:25:40.711Z,1012.32
2018-06-03T02:26:40.712Z,1012.28
2018-06-03T02:27:40.723Z,1012.31
2018-06-03T02:28:41.707Z,1012.27
2018-06-03T02:29:42.745Z,1012.27
2018-06-03T02:30:40.742Z,1012.23
2018-06-03T02:31:40.768Z,1012.22
2018-06-03T02:32:40.180Z,1012.21
2018-06-03T02:33:40.738Z,1012.23
2018-06-03T02:34:40.725Z,1012.24
2018-06-03T02:35:42.716Z,1012.23
2018-06-03T02:36:40.719Z,1012.22
2018-06-03T02:37:40.708Z,1012.25
2018-06-03T02:38:40.740Z,1012.27
2018-06-03T02:39:40.749Z,1012.26
2018-06-03T02:40:40.767Z,1012.22
2018-06-03T02:41:40.775Z,1012.23
2018-06-03T02:42:40.753Z,1012.24
2018-06-03T02:43:40.733Z,1012.22
2018-06-03T02:44:40.740Z,1012.18
2018-06-03T02:45:40.713Z,1012.17
2018-06-03T02:46:40.693Z,1012.19
2018-06-03T02:47:40.696Z,1012.20
2018-06-03T02:48:40.714Z,1012.21
2018-06-03T02:49:41.721Z,1012.22
2018-06-03T02:50:40.725Z,1012.25
2018-06-03T02:51:40.723Z,1012.21
2018-06-03T02:52:40.718Z,1012.21
2018-06-03T02:53:40.728Z,1012.24
2018-06-03T02:54:40.744Z,1012.19
2018-06-03T02:55:40.702Z,1012.23
2018-06-03T02:56:40.743Z,1012.24
2018-06-03T02:57:40.689Z,1012.22
2018-06-03T02:58:40.743Z,1012.20
2018-06-03T02:59:40.723Z,1012.21
2018-06-03T03:00:40.741Z,1012.24
2018-06-03T03:01:40.744Z,1012.24
2018-06-03T03:02:40.729Z,1012.24
2018-06-03T03:03:40.732Z,1012.24
2018-06-03T03:04:40.743Z,1012.22
2018-06-03T03:05:40.742Z,1012.18
2018-06-03T03:06:40.794Z,1012.20
2018-06-03T03:07:40.757Z,1012.17
2018-06-03T03:08:40.797Z,1012.20
2018-06-03T03:09:40.759Z,1012.22
2018-06-03T03:10:40.752Z,1012.22
2018-06-03T03:11:40.791Z,1012.22
2018-06-03T03:12:40.797Z,1012.21
2018-06-03T03:13:40.760Z,1012.22
2018-06-03T03:14:40.713Z,1012.21
2018-06-03T03:15:40.717Z,1012.25
2018-06-03T03:16:40.710Z,1012.23
2018-06-03T03:17:40.720Z,1012.27
2018-06-03T03:18:40.738Z,1012.26
2018-06-03T03:19:40.698Z,1012.23
2018-06-03T03:20:40.674Z,1012.30
2018-06-03T03:21:40.731Z,1012.22
2018-06-03T03:22:40.963Z,1012.29
2018-06-03T03:23:40.724Z,1012.27
2018-06-03T03:24:40.733Z,1012.30
2018-06-03T03:25:40.737Z,1012.31
2018-06-03T03:26:40.739Z,1012.33
2018-06-03T03:27:40.199Z,1012.37
2018-06-03T03:28:40.184Z,1012.36
2018-06-03T03:29:40.740Z,1012.36
2018-06-03T03:30:40.744Z,1012.32
2018-06-03T03:31:40.765Z,1012.33
2018-06-03T03:32:40.744Z,1012.32
2018-06-03T03:33:40.745Z,1012.30
2018-06-03T03:34:40.737Z,1012.34
2018-06-03T03:35:40.758Z,1012.31
2018-06-03T03:36:40.744Z,1012.32
2018-06-03T03:37:42.789Z,1012.34
2018-06-03T03:38:40.744Z,1012.31
2018-06-03T03:39:47.001Z,1012.33
2018-06-03T03:40:41.746Z,1012.29
2018-06-03T03:41:40.697Z,1012.30
2018-06-03T03:42:40.685Z,1012.31
2018-06-03T03:43:40.736Z,1012.34
2018-06-03T03:44:46.721Z,1012.27
2018-06-03T03:45:40.711Z,1012.26
2018-06-03T03:46:40.750Z,1012.28
2018-06-03T03:47:40.755Z,1012.28
2018-06-03T03:48:40.724Z,1012.26
2018-06-03T03:50:40.751Z,1012.27
2018-06-03T03:51:40.738Z,1012.23
2018-06-03T03:52:40.744Z,1012.24
2018-06-03T03:53:40.965Z,1012.28
2018-06-03T03:54:40.758Z,1012.31
2018-06-03T03:55:40.746Z,1012.32
2018-06-03T03:56:40.754Z,1012.31
2018-06-03T03:57:40.733Z,1012.33
2018-06-03T03:58:40.736Z,1012.30
2018-06-03T03:59:40.804Z,1012.28
2018-06-03T04:00:40.827Z,1012.31
2018-06-03T04:01:42.576Z,1012.30
2018-06-03T04:02:40.992Z,1012.29
2018-06-03T04:03:40.994Z,1012.33
2018-06-03T04:04:40.959Z,1012.33
2018-06-03T04:06:40.993Z,1012.31
2018-06-03T04:07:40.965Z,1012.33
2018-06-03T04:08:40.240Z,1012.32
2018-06-03T04:09:40.766Z,1012.36
2018-06-03T04:10:40.716Z,1012.35
2018-06-03T04:11:43.077Z,1012.34
2018-06-03T04:12:40.706Z,1012.33
2018-06-03T04:13:40.746Z,1012.35
2018-06-03T04:14:40.749Z,1012.35
2018-06-03T04:15:40.698Z,1012.37
2018-06-03T04:16:40.742Z,1012.37
2018-06-03T04:17:40.750Z,1012.36
2018-06-03T04:18:40.790Z,1012.29
2018-06-03T04:19:40.764Z,1012.33
2018-06-03T04:20:40.763Z,1012.31
2018-06-03T04:21:40.742Z,1012.35
2018-06-03T04:22:40.763Z,1012.35
2018-06-03T04:23:40.778Z,1012.36
2018-06-03T04:24:41.189Z,1012.33
2018-06-03T04:25:40.767Z,1012.36
2018-06-03T04:26:40.788Z,1012.33
2018-06-03T04:27:40.758Z,1012.33
2018-06-03T04:28:40.747Z,1012.37
2018-06-03T04:29:40.756Z,1012.38
2018-06-03T04:30:40.751Z,1012.40
2018-06-03T04:31:54.052Z,1012.41
2018-06-03T04:32:40.816Z,1012.39
2018-06-03T04:33:40.817Z,1012.39
2018-06-03T04:34:40.794Z,1012.39
2018-06-03T04:35:40.815Z,1012.36
2018-06-03T04:36:40.795Z,1012.35
2018-06-03T04:37:40.765Z,1012.40
2018-06-03T04:38:40.748Z,1012.41
2018-06-03T04:39:40.744Z,1012.44
2018-06-03T04:40:40.732Z,1012.41
2018-06-03T04:41:40.771Z,1012.44
2018-06-03T04:42:40.759Z,1012.44
2018-06-03T04:43:40.778Z,1012.48
2018-06-03T04:44:54.440Z,1012.46
2018-06-03T04:45:40.747Z,1012.50
2018-06-03T04:46:40.775Z,1012.51
2018-06-03T04:47:41.034Z,1012.51
2018-06-03T04:48:40.798Z,1012.53
2018-06-03T04:49:40.832Z,1012.48
2018-06-03T04:50:40.744Z,1012.49
2018-06-03T04:51:41.755Z,1012.51
2018-06-03T04:52:40.810Z,1012.51
2018-06-03T04:53:42.612Z,1012.49
2018-06-03T04:54:40.772Z,1012.48
2018-06-03T04:55:40.729Z,1012.51
2018-06-03T04:56:40.739Z,1012.51
2018-06-03T04:57:42.534Z,1012.48
2018-06-03T04:58:42.491Z,1012.50
2018-06-03T04:59:40.808Z,1012.55
2018-06-03T05:00:40.819Z,1012.55
2018-06-03T05:01:40.811Z,1012.54
2018-06-03T05:02:40.823Z,1012.57
2018-06-03T05:03:40.800Z,1012.59
2018-06-03T05:04:41.028Z,1012.63
2018-06-03T05:05:41.068Z,1012.63
2018-06-03T05:06:40.832Z,1012.63
2018-06-03T05:07:40.738Z,1012.67
2018-06-03T05:08:40.758Z,1012.66
2018-06-03T05:09:46.746Z,1012.63
2018-06-03T05:10:40.209Z,1012.67
2018-06-03T05:11:40.279Z,1012.65
2018-06-03T05:12:42.541Z,1012.65
2018-06-03T05:13:40.780Z,1012.59
2018-06-03T05:14:40.769Z,1012.62
2018-06-03T05:15:40.776Z,1012.61
2018-06-03T05:16:40.790Z,1012.64
2018-06-03T05:17:40.782Z,1012.63
2018-06-03T05:18:40.780Z,1012.65
2018-06-03T05:19:41.029Z,1012.66
2018-06-03T05:20:40.340Z,1012.66
2018-06-03T05:21:40.801Z,1012.63
2018-06-03T05:22:42.585Z,1012.60
2018-06-03T05:23:40.806Z,1012.63
2018-06-03T05:24:40.794Z,1012.65
2018-06-03T05:25:40.802Z,1012.63
2018-06-03T05:26:40.795Z,1012.62
2018-06-03T05:27:40.789Z,1012.68
2018-06-03T05:28:40.810Z,1012.71
2018-06-03T05:29:40.802Z,1012.66
2018-06-03T05:30:40.831Z,1012.68
2018-06-03T05:31:40.816Z,1012.70
2018-06-03T05:32:40.733Z,1012.69
2018-06-03T05:34:07.780Z,1012.74
2018-06-03T05:34:40.741Z,1012.70
2018-06-03T05:35:40.752Z,1012.71
2018-06-03T05:36:40.746Z,1012.69
2018-06-03T05:37:40.747Z,1012.69
2018-06-03T05:38:40.736Z,1012.72
2018-06-03T05:39:41.773Z,1012.73
2018-06-03T05:40:41.036Z,1012.70
2018-06-03T05:41:40.801Z,1012.72
2018-06-03T05:42:40.822Z,1012.69
2018-06-03T05:43:40.779Z,1012.73
2018-06-03T05:44:40.809Z,1012.75
2018-06-03T05:45:40.782Z,1012.71
2018-06-03T05:46:40.812Z,1012.72
2018-06-03T05:47:40.812Z,1012.70
2018-06-03T05:48:42.638Z,1012.74
2018-06-03T05:49:40.821Z,1012.80
2018-06-03T05:50:40.826Z,1012.80
2018-06-03T05:51:40.842Z,1012.81
2018-06-03T05:52:40.349Z,1012.78
2018-06-03T05:53:40.822Z,1012.77
2018-06-03T05:54:40.810Z,1012.76
2018-06-03T05:55:40.880Z,1012.78
2018-06-03T05:56:40.824Z,1012.81
2018-06-03T05:57:42.650Z,1012.83
2018-06-03T05:58:40.875Z,1012.84
2018-06-03T05:59:40.415Z,1012.79
2018-06-03T06:00:40.338Z,1012.83
2018-06-03T06:01:40.824Z,1012.87
2018-06-03T06:02:40.801Z,1012.89
2018-06-03T06:03:40.769Z,1012.88
2018-06-03T06:04:40.812Z,1012.90
2018-06-03T06:05:42.817Z,1012.86
2018-06-03T06:06:40.815Z,1012.89
2018-06-03T06:07:40.808Z,1012.89
2018-06-03T06:08:41.001Z,1012.92
2018-06-03T06:09:40.869Z,1012.96
2018-06-03T06:10:40.802Z,1012.93
2018-06-03T06:11:40.902Z,1012.97
2018-06-03T06:12:47.814Z,1012.94
2018-06-03T06:13:40.816Z,1012.97
2018-06-03T06:14:40.883Z,1012.98
2018-06-03T06:15:40.820Z,1013.03
2018-06-03T06:16:40.798Z,1013.00
2018-06-03T06:17:40.921Z,1013.01
2018-06-03T06:18:40.796Z,1013.00
2018-06-03T06:19:40.806Z,1013.03
2018-06-03T06:20:40.828Z,1013.05
2018-06-03T06:21:40.826Z,1013.04
2018-06-03T06:22:40.420Z,1013.04
2018-06-03T06:23:47.075Z,1013.04
2018-06-03T06:24:40.427Z,1013.08
2018-06-03T06:25:40.814Z,1013.07
2018-06-03T06:26:41.010Z,1013.02
2018-06-03T06:27:40.833Z,1013.01
2018-06-03T06:28:40.895Z,1013.00
2018-06-03T06:29:43.028Z,1012.99
2018-06-03T06:30:40.866Z,1012.97
2018-06-03T06:31:40.777Z,1012.98
2018-06-03T06:32:40.791Z,1012.97
2018-06-03T06:33:40.786Z,1013.03
2018-06-03T06:34:40.802Z,1012.99
2018-06-03T06:35:40.809Z,1013.00
2018-06-03T06:36:40.350Z,1012.99
2018-06-03T06:37:40.884Z,1012.96
2018-06-03T06:38:40.830Z,1012.97
2018-06-03T06:39:40.889Z,1012.98
2018-06-03T06:40:41.100Z,1012.97
2018-06-03T06:41:40.835Z,1013.04
2018-06-03T06:42:40.814Z,1013.03
2018-06-03T06:43:41.018Z,1013.04
2018-06-03T06:44:41.598Z,1013.06
2018-06-03T06:45:40.823Z,1013.08
2018-06-03T06:46:40.863Z,1013.14
2018-06-03T06:47:40.814Z,1013.11
2018-06-03T06:48:47.032Z,1013.13
2018-06-03T06:49:40.822Z,1013.13
2018-06-03T06:50:40.919Z,1013.16
2018-06-03T06:51:40.426Z,1013.16
2018-06-03T06:52:42.660Z,1013.17
2018-06-03T06:53:40.862Z,1013.16
2018-06-03T06:54:40.872Z,1013.23
2018-06-03T06:55:40.836Z,1013.21
2018-06-03T06:56:40.850Z,1013.23
2018-06-03T06:57:40.823Z,1013.22
2018-06-03T06:58:40.833Z,1013.24
2018-06-03T06:59:40.855Z,1013.24
2018-06-03T07:00:40.852Z,1013.24
2018-06-03T07:01:40.816Z,1013.23
2018-06-03T07:02:40.821Z,1013.23
2018-06-03T07:03:40.807Z,1013.21
2018-06-03T07:04:40.823Z,1013.24
2018-06-03T07:05:43.845Z,1013.27
2018-06-03T07:06:40.565Z,1013.29
2018-06-03T07:07:41.033Z,1013.28
2018-06-03T07:08:41.068Z,1013.28
2018-06-03T07:09:41.083Z,1013.29
2018-06-03T07:10:40.784Z,1013.31
2018-06-03T07:11:40.841Z,1013.31
2018-06-03T07:12:40.830Z,1013.30
2018-06-03T07:13:41.811Z,1013.34
2018-06-03T07:14:40.851Z,1013.31
2018-06-03T07:15:40.814Z,1013.29
2018-06-03T07:16:40.851Z,1013.32
2018-06-03T07:17:40.872Z,1013.30
2018-06-03T07:18:40.851Z,1013.33
2018-06-03T07:19:40.817Z,1013.35
2018-06-03T07:20:40.886Z,1013.34
2018-06-03T07:21:40.826Z,1013.31
2018-06-03T07:22:40.882Z,1013.35
2018-06-03T07:23:40.881Z,1013.33
2018-06-03T07:24:40.874Z,1013.31
2018-06-03T07:25:40.868Z,1013.31
2018-06-03T07:26:40.849Z,1013.30
2018-06-03T07:27:40.885Z,1013.28
2018-06-03T07:28:40.830Z,1013.29
2018-06-03T07:29:40.819Z,1013.30
2018-06-03T07:30:42.867Z,1013.28
2018-06-03T07:31:40.430Z,1013.24
2018-06-03T07:32:40.835Z,1013.28
2018-06-03T07:33:43.396Z,1013.30
2018-06-03T07:34:40.828Z,1013.30
2018-06-03T07:35:40.856Z,1013.28
2018-06-03T07:36:40.867Z,1013.30
2018-06-03T07:37:40.857Z,1013.33
2018-06-03T07:38:40.887Z,1013.34
2018-06-03T07:39:40.855Z,1013.30
2018-06-03T07:40:40.826Z,1013.35
2018-06-03T07:41:40.850Z,1013.36
2018-06-03T07:42:40.852Z,1013.34
2018-06-03T07:43:49.650Z,1013.33
2018-06-03T07:44:40.907Z,1013.32
2018-06-03T07:45:40.900Z,1013.32
2018-06-03T07:46:41.140Z,1013.34
2018-06-03T07:47:40.998Z,1013.36
2018-06-03T07:48:40.891Z,1013.36
2018-06-03T07:49:40.899Z,1013.38
2018-06-03T07:50:40.900Z,1013.36
2018-06-03T07:51:40.873Z,1013.33
2018-06-03T07:52:40.904Z,1013.33
2018-06-03T07:53:41.900Z,1013.33
2018-06-03T07:54:40.912Z,1013.34
2018-06-03T07:55:40.927Z,1013.33
2018-06-03T07:56:40.899Z,1013.31
2018-06-03T07:57:41.055Z,1013.33
2018-06-03T07:58:40.874Z,1013.34
2018-06-03T07:59:40.847Z,1013.34
2018-06-03T08:00:41.098Z,1013.36
2018-06-03T08:01:40.903Z,1013.36
2018-06-03T08:02:40.918Z,1013.34
2018-06-03T08:03:41.413Z,1013.35
2018-06-03T08:04:40.842Z,1013.35
2018-06-03T08:05:41.405Z,1013.31
2018-06-03T08:06:40.554Z,1013.31
2018-06-03T08:07:41.128Z,1013.31
2018-06-03T08:08:42.353Z,1013.28
2018-06-03T08:09:41.111Z,1013.30
2018-06-03T08:10:41.000Z,1013.29
2018-06-03T08:11:40.912Z,1013.29
2018-06-03T08:12:40.983Z,1013.33
2018-06-03T08:13:41.009Z,1013.29
2018-06-03T08:14:41.029Z,1013.29
2018-06-03T08:15:41.036Z,1013.27
2018-06-03T08:16:41.039Z,1013.30
2018-06-03T08:17:40.998Z,1013.28
2018-06-03T08:18:41.020Z,1013.27
2018-06-03T08:19:41.026Z,1013.29
2018-06-03T08:20:40.991Z,1013.29
2018-06-03T08:21:40.899Z,1013.26
2018-06-03T08:22:40.850Z,1013.28
2018-06-03T08:23:41.872Z,1013.25
2018-06-03T08:24:40.902Z,1013.27
2018-06-03T08:25:40.942Z,1013.27
2018-06-03T08:26:40.606Z,1013.25
2018-06-03T08:27:40.847Z,1013.24
2018-06-03T08:28:43.601Z,1013.24
2018-06-03T08:29:41.109Z,1013.28
2018-06-03T08:30:40.614Z,1013.29
2018-06-03T08:31:41.423Z,1013.30
2018-06-03T08:32:41.592Z,1013.29
2018-06-03T08:33:40.871Z,1013.32
2018-06-03T08:34:43.106Z,1013.28
2018-06-03T08:35:40.948Z,1013.33
2018-06-03T08:36:40.906Z,1013.31
2018-06-03T08:37:41.063Z,1013.31
2018-06-03T08:38:40.528Z,1013.33
2018-06-03T08:39:40.894Z,1013.29
2018-06-03T08:40:40.930Z,1013.35
2018-06-03T08:41:41.071Z,1013.34
2018-06-03T08:42:41.012Z,1013.29
2018-06-03T08:43:41.037Z,1013.29
2018-06-03T08:44:43.487Z,1013.33
2018-06-03T08:45:42.890Z,1013.31
2018-06-03T08:46:43.151Z,1013.33
2018-06-03T08:47:41.118Z,1013.33
2018-06-03T08:48:41.035Z,1013.36
2018-06-03T08:49:41.449Z,1013.38
2018-06-03T08:50:41.074Z,1013.39
2018-06-03T08:51:41.120Z,1013.39
2018-06-03T08:52:41.613Z,1013.39
2018-06-03T08:53:41.033Z,1013.42
2018-06-03T08:54:41.045Z,1013.43
2018-06-03T08:55:41.074Z,1013.40
2018-06-03T08:56:41.114Z,1013.44
2018-06-03T08:57:41.068Z,1013.45
2018-06-03T08:58:40.939Z,1013.43
2018-06-03T08:59:40.998Z,1013.45
2018-06-03T09:00:40.898Z,1013.41
2018-06-03T09:01:40.964Z,1013.40
2018-06-03T09:02:40.929Z,1013.39
2018-06-03T09:03:40.955Z,1013.39
2018-06-03T09:04:41.084Z,1013.39
2018-06-03T09:05:41.405Z,1013.39
2018-06-03T09:06:41.059Z,1013.38
2018-06-03T09:07:41.292Z,1013.43
2018-06-03T09:08:41.093Z,1013.40
2018-06-03T09:09:41.425Z,1013.36
2018-06-03T09:10:43.075Z,1013.34
2018-06-03T09:11:41.582Z,1013.41
2018-06-03T09:12:41.601Z,1013.40
2018-06-03T09:13:41.389Z,1013.39
2018-06-03T09:14:41.678Z,1013.30
2018-06-03T09:15:40.720Z,1013.36
2018-06-03T09:16:41.395Z,1013.35
2018-06-03T09:17:43.580Z,1013.36
2018-06-03T09:18:41.699Z,1013.33
2018-06-03T09:19:41.388Z,1013.36
2018-06-03T09:20:41.667Z,1013.35
2018-06-03T09:21:41.332Z,1013.37
2018-06-03T09:22:41.330Z,1013.35
2018-06-03T09:23:41.301Z,1013.38
2018-06-03T09:24:41.375Z,1013.37
2018-06-03T09:25:41.367Z,1013.40
2018-06-03T09:26:41.373Z,1013.39
2018-06-03T09:27:41.373Z,1013.40
2018-06-03T09:28:41.372Z,1013.38
2018-06-03T09:29:41.389Z,1013.40
2018-06-03T09:30:41.338Z,1013.42
2018-06-03T09:31:41.355Z,1013.41
2018-06-03T09:32:41.360Z,1013.41
2018-06-03T09:33:41.382Z,1013.40
2018-06-03T09:34:41.671Z,1013.41
2018-06-03T09:35:41.128Z,1013.40
2018-06-03T09:36:41.593Z,1013.40
2018-06-03T09:37:41.416Z,1013.36
2018-06-03T09:38:41.415Z,1013.36
2018-06-03T09:39:41.433Z,1013.34
2018-06-03T09:40:41.723Z,1013.35
2018-06-03T09:41:41.460Z,1013.40
2018-06-03T09:42:41.376Z,1013.35
2018-06-03T09:43:41.133Z,1013.33
2018-06-03T09:44:41.470Z,1013.34
2018-06-03T09:45:41.381Z,1013.39
2018-06-03T09:46:45.085Z,1013.37
2018-06-03T09:47:41.439Z,1013.30
2018-06-03T09:48:41.356Z,1013.33
2018-06-03T09:49:41.384Z,1013.36
2018-06-03T09:50:41.379Z,1013.33
2018-06-03T09:51:41.364Z,1013.33
2018-06-03T09:52:50.308Z,1013.31
2018-06-03T09:53:41.341Z,1013.32
2018-06-03T09:54:41.340Z,1013.29
2018-06-03T09:55:41.638Z,1013.26
2018-06-03T09:56:41.492Z,1013.26
2018-06-03T09:57:41.697Z,1013.25
2018-06-03T09:58:41.877Z,1013.21
2018-06-03T10:01:45.789Z,1013.22
2018-06-03T10:03:13.031Z,1013.22
2018-06-03T10:07:58.157Z,1013.11
2018-06-03T10:09:58.581Z,1013.16
2018-06-03T10:10:54.854Z,1013.15
2018-06-03T10:12:45.734Z,1013.18
2018-06-03T10:13:45.507Z,1013.15
2018-06-03T10:15:40.677Z,1013.07
2018-06-03T10:16:40.684Z,1013.07
2018-06-03T10:18:34.294Z,1013.04
2018-06-03T10:19:34.853Z,1013.06
2018-06-03T10:21:28.488Z,1012.99
2018-06-03T10:22:28.718Z,1013.02
2018-06-03T10:24:22.900Z,1013.10
2018-06-03T10:25:22.901Z,1013.08
2018-06-03T10:27:17.084Z,1013.09
2018-06-03T10:29:31.409Z,1013.11
2018-06-03T10:30:31.875Z,1013.11
2018-06-03T10:31:31.808Z,1013.11
2018-06-03T10:32:31.884Z,1013.12
2018-06-03T10:33:32.060Z,1013.17
2018-06-03T10:34:31.627Z,1013.12
2018-06-03T10:35:33.796Z,1013.15
2018-06-03T10:36:31.570Z,1013.18
2018-06-03T10:38:26.037Z,1013.19
2018-06-03T10:41:20.277Z,1013.18
2018-06-03T10:42:20.544Z,1013.20
2018-06-03T10:44:14.612Z,1013.15
2018-06-03T10:45:14.716Z,1013.16
2018-06-03T10:47:08.523Z,1013.11
2018-06-03T10:48:08.866Z,1013.15
2018-06-03T10:50:03.792Z,1013.16
2018-06-03T10:51:03.552Z,1013.16
2018-06-03T10:52:03.615Z,1013.19
2018-06-03T10:53:09.845Z,1013.22
2018-06-03T10:54:03.288Z,1013.26
2018-06-03T10:55:03.869Z,1013.20
2018-06-03T10:56:03.582Z,1013.20
2018-06-03T10:57:03.567Z,1013.14
2018-06-03T10:58:03.652Z,1013.11
2018-06-03T10:59:03.775Z,1013.15
2018-06-03T11:00:03.697Z,1013.13
2018-06-03T11:01:03.663Z,1013.11
2018-06-03T11:02:03.826Z,1013.16
2018-06-03T11:03:03.850Z,1013.11
2018-06-03T11:04:03.620Z,1013.10
2018-06-03T11:05:03.205Z,1013.03
2018-06-03T11:07:03.259Z,1013.05
2018-06-03T11:08:03.757Z,1013.02
2018-06-03T11:09:03.606Z,1013.02
2018-06-03T11:10:03.262Z,1012.99
2018-06-03T11:11:05.780Z,1013.01
2018-06-03T11:12:07.625Z,1013.01
2018-06-03T11:13:07.382Z,1013.03
2018-06-03T11:14:03.657Z,1013.05
2018-06-03T11:15:04.246Z,1012.98
2018-06-03T11:16:03.758Z,1013.04
2018-06-03T11:17:04.101Z,1013.04
2018-06-03T11:18:03.674Z,1013.00
2018-06-03T11:19:03.674Z,1012.96
2018-06-03T11:20:03.640Z,1012.92
2018-06-03T11:21:12.505Z,1012.94
2018-06-03T11:22:03.650Z,1013.00
2018-06-03T11:23:10.005Z,1012.93
2018-06-03T11:26:01.505Z,1012.89
2018-06-03T11:28:14.118Z,1012.89
2018-06-03T11:28:52.540Z,1012.95
2018-06-03T11:30:48.455Z,1012.89
2018-06-03T11:31:46.033Z,1012.93
2018-06-03T11:33:48.373Z,1012.87
2018-06-03T11:36:36.381Z,1012.83
2018-06-03T11:37:19.947Z,1012.87
2018-06-03T11:38:12.583Z,1012.84
2018-06-03T11:39:20.684Z,1012.90
2018-06-03T11:39:57.643Z,1012.90
2018-06-03T11:40:57.403Z,1012.91
2018-06-03T11:41:57.555Z,1012.93
2018-06-03T11:42:59.206Z,1012.90
2018-06-03T11:43:57.129Z,1012.92
2018-06-03T11:44:56.988Z,1012.85
2018-06-03T11:45:57.379Z,1012.87
2018-06-03T11:46:57.422Z,1012.86
2018-06-03T11:47:57.452Z,1012.97
2018-06-03T11:48:57.091Z,1012.97
2018-06-03T11:49:57.074Z,1012.94
2018-06-03T11:50:57.107Z,1012.96
2018-06-03T11:51:57.040Z,1012.85
2018-06-03T11:52:57.615Z,1012.92
2018-06-03T11:53:56.725Z,1012.93
2018-06-03T11:54:57.052Z,1012.97
2018-06-03T11:55:57.412Z,1012.95
2018-06-03T11:56:57.422Z,1012.99
2018-06-03T11:57:57.324Z,1013.04
2018-06-03T11:58:57.068Z,1012.98
2018-06-03T11:59:57.381Z,1012.93
2018-06-03T12:00:57.655Z,1012.96
2018-06-03T12:01:58.302Z,1012.92
2018-06-03T12:02:57.922Z,1012.90
2018-06-03T12:03:57.575Z,1012.91
2018-06-03T12:04:58.086Z,1012.97
2018-06-03T12:05:57.415Z,1012.97
2018-06-03T12:06:57.475Z,1012.88
2018-06-03T12:07:57.400Z,1012.97
2018-06-03T12:08:57.376Z,1012.96
2018-06-03T12:09:57.576Z,1012.91
2018-06-03T12:10:57.571Z,1012.95
2018-06-03T12:11:57.571Z,1012.94
2018-06-03T12:12:57.538Z,1012.94
2018-06-03T12:13:57.487Z,1012.92
2018-06-03T12:14:57.924Z,1012.93
2018-06-03T12:15:57.212Z,1012.97
2018-06-03T12:18:29.963Z,1012.88
2018-06-03T12:19:30.562Z,1012.83
2018-06-03T12:27:02.868Z,1012.88
2018-06-03T12:30:10.432Z,1012.81
2018-06-03T12:32:25.931Z,1012.77
2018-06-03T12:34:38.883Z,1012.77
2018-06-03T12:35:39.165Z,1012.82
2018-06-03T12:37:33.941Z,1012.76
2018-06-03T12:38:33.916Z,1012.89
2018-06-03T12:40:35.121Z,1013.11
2018-06-03T12:41:29.202Z,1013.19
2018-06-03T12:43:21.388Z,1013.26
2018-06-03T12:46:20.970Z,1013.30
2018-06-03T12:47:17.108Z,1013.36
2018-06-03T12:49:11.910Z,1012.80
2018-06-03T12:50:11.152Z,1012.69
2018-06-03T12:51:12.597Z,1012.67
2018-06-03T12:52:12.259Z,1012.65